sensor_id;sensor_type;location;lat;lon;timestamp;P1;durP1;ratioP1;P2;durP2;ratioP2
20375;SDS011;10347;51.828;6.466;2024-03-02T00:00:25;1.70;;;1.60;;
20375;SDS011;10347;51.828;6.466;2024-03-02T00:02:52;2.53;;;1.95;;
20375;SDS011;10347;51.828;6.466;2024-03-02T00:05:18;2.53;;;1.80;;
20375;SDS011;10347;51.828;6.466;2024-03-02T00:07:45;3.90;;;1.92;;
20375;SDS011;10347;51.828;6.466;2024-03-02T00:10:19;2.42;;;2.00;;
20375;SDS011;10347;51.828;6.466;2024-03-02T00:12:48;1.77;;;1.67;;
20375;SDS011;10347;51.828;6.466;2024-03-02T00:17:57;3.08;;;2.00;;
20375;SDS011;10347;51.828;6.466;2024-03-02T00:20:23;3.97;;;1.90;;
20375;SDS011;10347;51.828;6.466;2024-03-02T00:22:52;2.00;;;1.90;;
20375;SDS011;10347;51.828;6.466;2024-03-02T00:25:40;4.10;;;2.40;;
20375;SDS011;10347;51.828;6.466;2024-03-02T00:28:13;5.60;;;2.30;;
20375;SDS011;10347;51.828;6.466;2024-03-02T00:33:16;7.25;;;2.10;;
20375;SDS011;10347;51.828;6.466;2024-03-02T00:35:46;2.15;;;1.88;;
20375;SDS011;10347;51.828;6.466;2024-03-02T00:38:12;3.45;;;2.15;;
20375;SDS011;10347;51.828;6.466;2024-03-02T00:40:40;2.10;;;1.90;;
20375;SDS011;10347;51.828;6.466;2024-03-02T00:45:53;2.08;;;1.88;;
20375;SDS011;10347;51.828;6.466;2024-03-02T00:48:19;2.67;;;2.20;;
20375;SDS011;10347;51.828;6.466;2024-03-02T00:50:45;2.88;;;1.80;;
20375;SDS011;10347;51.828;6.466;2024-03-02T00:53:11;1.90;;;1.80;;
20375;SDS011;10347;51.828;6.466;2024-03-02T00:55:38;2.65;;;2.05;;
20375;SDS011;10347;51.828;6.466;2024-03-02T00:58:04;1.90;;;1.80;;
20375;SDS011;10347;51.828;6.466;2024-03-02T01:00:30;3.50;;;2.00;;
20375;SDS011;10347;51.828;6.466;2024-03-02T01:02:55;2.90;;;1.90;;
20375;SDS011;10347;51.828;6.466;2024-03-02T01:05:21;2.33;;;1.80;;
20375;SDS011;10347;51.828;6.466;2024-03-02T01:07:46;1.80;;;1.70;;
20375;SDS011;10347;51.828;6.466;2024-03-02T01:10:12;3.80;;;2.00;;
20375;SDS011;10347;51.828;6.466;2024-03-02T01:12:38;2.45;;;2.22;;
20375;SDS011;10347;51.828;6.466;2024-03-02T01:15:04;3.88;;;2.13;;
20375;SDS011;10347;51.828;6.466;2024-03-02T01:17:33;2.28;;;2.10;;
20375;SDS011;10347;51.828;6.466;2024-03-02T01:19:58;2.85;;;2.13;;
20375;SDS011;10347;51.828;6.466;2024-03-02T01:22:24;1.85;;;1.75;;
20375;SDS011;10347;51.828;6.466;2024-03-02T01:24:50;3.70;;;2.13;;
20375;SDS011;10347;51.828;6.466;2024-03-02T01:27:16;2.42;;;2.00;;
20375;SDS011;10347;51.828;6.466;2024-03-02T01:29:42;3.10;;;1.95;;
20375;SDS011;10347;51.828;6.466;2024-03-02T01:32:07;2.95;;;2.10;;
20375;SDS011;10347;51.828;6.466;2024-03-02T01:34:33;5.10;;;1.95;;
20375;SDS011;10347;51.828;6.466;2024-03-02T01:36:58;4.78;;;2.20;;
20375;SDS011;10347;51.828;6.466;2024-03-02T01:39:24;2.10;;;1.95;;
20375;SDS011;10347;51.828;6.466;2024-03-02T01:41:50;2.17;;;1.73;;
20375;SDS011;10347;51.828;6.466;2024-03-02T01:44:15;2.13;;;1.98;;
20375;SDS011;10347;51.828;6.466;2024-03-02T01:46:41;3.20;;;2.30;;
20375;SDS011;10347;51.828;6.466;2024-03-02T01:49:07;2.95;;;2.20;;
20375;SDS011;10347;51.828;6.466;2024-03-02T01:51:33;2.67;;;2.00;;
20375;SDS011;10347;51.828;6.466;2024-03-02T01:53:59;2.08;;;1.95;;
20375;SDS011;10347;51.828;6.466;2024-03-02T01:56:24;2.03;;;1.83;;
20375;SDS011;10347;51.828;6.466;2024-03-02T01:58:50;1.92;;;1.80;;
20375;SDS011;10347;51.828;6.466;2024-03-02T02:01:15;2.70;;;1.80;;
20375;SDS011;10347;51.828;6.466;2024-03-02T02:03:41;3.03;;;1.83;;
20375;SDS011;10347;51.828;6.466;2024-03-02T02:06:08;1.73;;;1.63;;
20375;SDS011;10347;51.828;6.466;2024-03-02T02:08:36;2.15;;;1.80;;
20375;SDS011;10347;51.828;6.466;2024-03-02T02:11:02;2.47;;;1.83;;
20375;SDS011;10347;51.828;6.466;2024-03-02T02:13:28;1.80;;;1.70;;
20375;SDS011;10347;51.828;6.466;2024-03-02T02:15:53;2.45;;;1.92;;
20375;SDS011;10347;51.828;6.466;2024-03-02T02:18:19;2.92;;;1.90;;
20375;SDS011;10347;51.828;6.466;2024-03-02T02:20:45;2.10;;;1.67;;
20375;SDS011;10347;51.828;6.466;2024-03-02T02:23:10;3.13;;;1.80;;
20375;SDS011;10347;51.828;6.466;2024-03-02T02:25:37;2.15;;;1.80;;
20375;SDS011;10347;51.828;6.466;2024-03-02T02:28:03;5.22;;;1.88;;
20375;SDS011;10347;51.828;6.466;2024-03-02T02:30:31;2.30;;;2.05;;
20375;SDS011;10347;51.828;6.466;2024-03-02T02:32:58;2.13;;;1.75;;
20375;SDS011;10347;51.828;6.466;2024-03-02T02:35:23;2.33;;;2.05;;
20375;SDS011;10347;51.828;6.466;2024-03-02T02:37:49;2.15;;;1.98;;
20375;SDS011;10347;51.828;6.466;2024-03-02T02:40:15;4.63;;;2.00;;
20375;SDS011;10347;51.828;6.466;2024-03-02T02:42:41;1.90;;;1.70;;
20375;SDS011;10347;51.828;6.466;2024-03-02T02:45:07;1.73;;;1.63;;
20375;SDS011;10347;51.828;6.466;2024-03-02T02:47:33;1.67;;;1.55;;
20375;SDS011;10347;51.828;6.466;2024-03-02T02:50:00;1.88;;;1.40;;
20375;SDS011;10347;51.828;6.466;2024-03-02T02:52:30;1.40;;;1.30;;
20375;SDS011;10347;51.828;6.466;2024-03-02T02:54:58;1.35;;;1.33;;
20375;SDS011;10347;51.828;6.466;2024-03-02T02:57:23;1.30;;;1.20;;
20375;SDS011;10347;51.828;6.466;2024-03-02T02:59:49;1.85;;;1.20;;
20375;SDS011;10347;51.828;6.466;2024-03-02T03:02:15;1.30;;;1.20;;
20375;SDS011;10347;51.828;6.466;2024-03-02T03:04:40;1.42;;;1.33;;
20375;SDS011;10347;51.828;6.466;2024-03-02T03:07:06;2.42;;;1.10;;
20375;SDS011;10347;51.828;6.466;2024-03-02T03:09:32;1.40;;;1.30;;
20375;SDS011;10347;51.828;6.466;2024-03-02T03:11:57;1.48;;;1.30;;
20375;SDS011;10347;51.828;6.466;2024-03-02T03:14:23;1.08;;;1.08;;
20375;SDS011;10347;51.828;6.466;2024-03-02T03:16:48;1.33;;;1.20;;
20375;SDS011;10347;51.828;6.466;2024-03-02T03:19:15;1.20;;;1.10;;
20375;SDS011;10347;51.828;6.466;2024-03-02T03:21:40;1.05;;;1.00;;
20375;SDS011;10347;51.828;6.466;2024-03-02T03:24:08;0.80;;;0.80;;
20375;SDS011;10347;51.828;6.466;2024-03-02T03:26:35;1.15;;;1.10;;
20375;SDS011;10347;51.828;6.466;2024-03-02T03:29:01;0.90;;;0.90;;
20375;SDS011;10347;51.828;6.466;2024-03-02T03:31:27;0.90;;;0.90;;
20375;SDS011;10347;51.828;6.466;2024-03-02T03:33:53;0.90;;;0.90;;
20375;SDS011;10347;51.828;6.466;2024-03-02T03:36:19;0.85;;;0.85;;
20375;SDS011;10347;51.828;6.466;2024-03-02T03:38:44;0.90;;;0.90;;
20375;SDS011;10347;51.828;6.466;2024-03-02T03:41:10;1.00;;;1.00;;
20375;SDS011;10347;51.828;6.466;2024-03-02T03:43:36;0.90;;;0.90;;
20375;SDS011;10347;51.828;6.466;2024-03-02T03:46:02;2.45;;;1.00;;
20375;SDS011;10347;51.828;6.466;2024-03-02T03:48:28;0.90;;;0.90;;
20375;SDS011;10347;51.828;6.466;2024-03-02T03:50:55;1.00;;;1.00;;
20375;SDS011;10347;51.828;6.466;2024-03-02T03:53:21;0.90;;;0.90;;
20375;SDS011;10347;51.828;6.466;2024-03-02T03:55:47;1.00;;;0.90;;
20375;SDS011;10347;51.828;6.466;2024-03-02T03:58:14;1.00;;;1.00;;
20375;SDS011;10347;51.828;6.466;2024-03-02T04:00:41;0.90;;;0.90;;
20375;SDS011;10347;51.828;6.466;2024-03-02T04:03:07;0.90;;;0.90;;
20375;SDS011;10347;51.828;6.466;2024-03-02T04:05:33;1.75;;;0.95;;
20375;SDS011;10347;51.828;6.466;2024-03-02T04:07:58;1.00;;;1.00;;
20375;SDS011;10347;51.828;6.466;2024-03-02T04:10:25;0.90;;;0.90;;
20375;SDS011;10347;51.828;6.466;2024-03-02T04:12:50;1.10;;;1.10;;
20375;SDS011;10347;51.828;6.466;2024-03-02T04:15:16;0.82;;;0.82;;
20375;SDS011;10347;51.828;6.466;2024-03-02T04:17:43;2.00;;;1.08;;
20375;SDS011;10347;51.828;6.466;2024-03-02T04:20:09;1.00;;;0.90;;
20375;SDS011;10347;51.828;6.466;2024-03-02T04:22:37;1.00;;;0.95;;
20375;SDS011;10347;51.828;6.466;2024-03-02T04:25:03;0.80;;;0.80;;
20375;SDS011;10347;51.828;6.466;2024-03-02T04:27:29;0.90;;;0.90;;
20375;SDS011;10347;51.828;6.466;2024-03-02T04:29:56;1.20;;;1.08;;
20375;SDS011;10347;51.828;6.466;2024-03-02T04:32:22;1.70;;;1.30;;
20375;SDS011;10347;51.828;6.466;2024-03-02T04:34:47;1.27;;;0.88;;
20375;SDS011;10347;51.828;6.466;2024-03-02T04:37:13;0.90;;;0.90;;
20375;SDS011;10347;51.828;6.466;2024-03-02T04:39:39;1.10;;;1.00;;
20375;SDS011;10347;51.828;6.466;2024-03-02T04:42:05;0.90;;;0.90;;
20375;SDS011;10347;51.828;6.466;2024-03-02T04:44:30;1.10;;;1.00;;
20375;SDS011;10347;51.828;6.466;2024-03-02T04:46:56;1.85;;;0.80;;
20375;SDS011;10347;51.828;6.466;2024-03-02T04:49:22;0.80;;;0.80;;
20375;SDS011;10347;51.828;6.466;2024-03-02T04:51:48;0.90;;;0.90;;
20375;SDS011;10347;51.828;6.466;2024-03-02T04:54:13;0.80;;;0.80;;
20375;SDS011;10347;51.828;6.466;2024-03-02T04:56:39;1.92;;;0.90;;
20375;SDS011;10347;51.828;6.466;2024-03-02T04:59:09;0.82;;;0.82;;
20375;SDS011;10347;51.828;6.466;2024-03-02T05:01:35;0.90;;;0.90;;
20375;SDS011;10347;51.828;6.466;2024-03-02T05:04:01;0.90;;;0.90;;
20375;SDS011;10347;51.828;6.466;2024-03-02T05:06:27;0.80;;;0.80;;
20375;SDS011;10347;51.828;6.466;2024-03-02T05:08:52;0.80;;;0.80;;
20375;SDS011;10347;51.828;6.466;2024-03-02T05:11:18;0.90;;;0.90;;
20375;SDS011;10347;51.828;6.466;2024-03-02T05:14:02;0.95;;;0.95;;
20375;SDS011;10347;51.828;6.466;2024-03-02T05:16:37;0.70;;;0.70;;
20375;SDS011;10347;51.828;6.466;2024-03-02T05:19:03;0.98;;;0.98;;
20375;SDS011;10347;51.828;6.466;2024-03-02T05:21:31;0.90;;;0.90;;
20375;SDS011;10347;51.828;6.466;2024-03-02T05:23:57;0.70;;;0.70;;
20375;SDS011;10347;51.828;6.466;2024-03-02T05:26:23;0.90;;;0.90;;
20375;SDS011;10347;51.828;6.466;2024-03-02T05:28:48;0.80;;;0.80;;
20375;SDS011;10347;51.828;6.466;2024-03-02T05:31:17;0.85;;;0.85;;
20375;SDS011;10347;51.828;6.466;2024-03-02T05:33:42;0.82;;;0.82;;
20375;SDS011;10347;51.828;6.466;2024-03-02T05:36:08;0.82;;;0.82;;
20375;SDS011;10347;51.828;6.466;2024-03-02T05:38:34;1.20;;;1.20;;
20375;SDS011;10347;51.828;6.466;2024-03-02T05:41:00;1.00;;;1.00;;
20375;SDS011;10347;51.828;6.466;2024-03-02T05:43:26;1.00;;;1.00;;
20375;SDS011;10347;51.828;6.466;2024-03-02T05:45:52;0.90;;;0.90;;
20375;SDS011;10347;51.828;6.466;2024-03-02T05:48:17;0.80;;;0.80;;
20375;SDS011;10347;51.828;6.466;2024-03-02T05:50:43;1.25;;;0.90;;
20375;SDS011;10347;51.828;6.466;2024-03-02T05:53:08;0.80;;;0.80;;
20375;SDS011;10347;51.828;6.466;2024-03-02T05:55:34;1.02;;;1.02;;
20375;SDS011;10347;51.828;6.466;2024-03-02T05:58:00;0.80;;;0.80;;
20375;SDS011;10347;51.828;6.466;2024-03-02T06:00:31;0.70;;;0.70;;
20375;SDS011;10347;51.828;6.466;2024-03-02T06:02:57;0.90;;;0.90;;
20375;SDS011;10347;51.828;6.466;2024-03-02T06:05:23;0.80;;;0.80;;
20375;SDS011;10347;51.828;6.466;2024-03-02T06:07:49;0.90;;;0.90;;
20375;SDS011;10347;51.828;6.466;2024-03-02T06:10:15;0.80;;;0.80;;
20375;SDS011;10347;51.828;6.466;2024-03-02T06:12:41;0.90;;;0.90;;
20375;SDS011;10347;51.828;6.466;2024-03-02T06:15:07;0.93;;;0.93;;
20375;SDS011;10347;51.828;6.466;2024-03-02T06:17:34;0.75;;;0.75;;
20375;SDS011;10347;51.828;6.466;2024-03-02T06:20:01;0.85;;;0.85;;
20375;SDS011;10347;51.828;6.466;2024-03-02T06:22:27;1.00;;;1.00;;
20375;SDS011;10347;51.828;6.466;2024-03-02T06:24:53;0.90;;;0.90;;
20375;SDS011;10347;51.828;6.466;2024-03-02T06:27:18;1.27;;;1.20;;
20375;SDS011;10347;51.828;6.466;2024-03-02T06:29:44;1.00;;;1.00;;
20375;SDS011;10347;51.828;6.466;2024-03-02T06:32:10;1.00;;;1.00;;
20375;SDS011;10347;51.828;6.466;2024-03-02T06:34:35;1.10;;;1.10;;
20375;SDS011;10347;51.828;6.466;2024-03-02T06:37:01;1.20;;;1.20;;
20375;SDS011;10347;51.828;6.466;2024-03-02T06:39:27;1.00;;;0.90;;
20375;SDS011;10347;51.828;6.466;2024-03-02T06:41:52;0.90;;;0.90;;
20375;SDS011;10347;51.828;6.466;2024-03-02T06:44:18;1.00;;;1.00;;
20375;SDS011;10347;51.828;6.466;2024-03-02T06:46:44;0.80;;;0.80;;
20375;SDS011;10347;51.828;6.466;2024-03-02T06:49:09;1.00;;;1.00;;
20375;SDS011;10347;51.828;6.466;2024-03-02T06:51:37;0.90;;;0.90;;
20375;SDS011;10347;51.828;6.466;2024-03-02T06:54:03;1.20;;;1.20;;
20375;SDS011;10347;51.828;6.466;2024-03-02T06:56:29;1.40;;;1.30;;
20375;SDS011;10347;51.828;6.466;2024-03-02T06:58:55;1.45;;;1.35;;
20375;SDS011;10347;51.828;6.466;2024-03-02T07:01:21;1.00;;;1.00;;
20375;SDS011;10347;51.828;6.466;2024-03-02T07:03:46;1.13;;;0.90;;
20375;SDS011;10347;51.828;6.466;2024-03-02T07:06:12;0.90;;;0.90;;
20375;SDS011;10347;51.828;6.466;2024-03-02T07:08:38;1.10;;;1.00;;
20375;SDS011;10347;51.828;6.466;2024-03-02T07:11:03;1.00;;;1.00;;
20375;SDS011;10347;51.828;6.466;2024-03-02T07:13:29;1.00;;;1.00;;
20375;SDS011;10347;51.828;6.466;2024-03-02T07:15:54;1.00;;;1.00;;
20375;SDS011;10347;51.828;6.466;2024-03-02T07:18:29;1.95;;;1.35;;
20375;SDS011;10347;51.828;6.466;2024-03-02T07:20:58;1.30;;;1.20;;
20375;SDS011;10347;51.828;6.466;2024-03-02T07:23:26;1.80;;;1.50;;
20375;SDS011;10347;51.828;6.466;2024-03-02T07:25:55;1.50;;;1.42;;
20375;SDS011;10347;51.828;6.466;2024-03-02T07:28:25;1.58;;;1.48;;
20375;SDS011;10347;51.828;6.466;2024-03-02T07:30:58;1.55;;;1.45;;
20375;SDS011;10347;51.828;6.466;2024-03-02T07:33:24;1.40;;;1.30;;
20375;SDS011;10347;51.828;6.466;2024-03-02T07:35:49;1.42;;;1.33;;
20375;SDS011;10347;51.828;6.466;2024-03-02T07:38:15;1.73;;;1.63;;
20375;SDS011;10347;51.828;6.466;2024-03-02T07:40:40;1.92;;;1.70;;
20375;SDS011;10347;51.828;6.466;2024-03-02T07:43:07;4.68;;;1.85;;
20375;SDS011;10347;51.828;6.466;2024-03-02T07:45:33;2.50;;;2.00;;
20375;SDS011;10347;51.828;6.466;2024-03-02T07:48:01;2.05;;;1.95;;
20375;SDS011;10347;51.828;6.466;2024-03-02T07:50:29;2.38;;;2.17;;
20375;SDS011;10347;51.828;6.466;2024-03-02T07:52:55;2.03;;;1.92;;
20375;SDS011;10347;51.828;6.466;2024-03-02T07:55:21;3.78;;;2.00;;
20375;SDS011;10347;51.828;6.466;2024-03-02T07:57:48;2.95;;;2.08;;
20375;SDS011;10347;51.828;6.466;2024-03-02T08:00:15;2.80;;;2.60;;
20375;SDS011;10347;51.828;6.466;2024-03-02T08:02:40;2.17;;;1.98;;
20375;SDS011;10347;51.828;6.466;2024-03-02T08:05:07;1.70;;;1.60;;
20375;SDS011;10347;51.828;6.466;2024-03-02T08:07:33;2.30;;;1.88;;
20375;SDS011;10347;51.828;6.466;2024-03-02T08:09:59;2.00;;;1.83;;
20375;SDS011;10347;51.828;6.466;2024-03-02T08:12:25;2.28;;;2.08;;
20375;SDS011;10347;51.828;6.466;2024-03-02T08:14:50;2.05;;;1.85;;
20375;SDS011;10347;51.828;6.466;2024-03-02T08:17:16;1.90;;;1.80;;
20375;SDS011;10347;51.828;6.466;2024-03-02T08:19:42;3.78;;;2.10;;
20375;SDS011;10347;51.828;6.466;2024-03-02T08:22:08;3.42;;;1.83;;
20375;SDS011;10347;51.828;6.466;2024-03-02T08:24:33;1.83;;;1.73;;
20375;SDS011;10347;51.828;6.466;2024-03-02T08:26:59;1.98;;;1.88;;
20375;SDS011;10347;51.828;6.466;2024-03-02T08:29:25;2.00;;;1.80;;
20375;SDS011;10347;51.828;6.466;2024-03-02T08:31:50;2.15;;;2.05;;
20375;SDS011;10347;51.828;6.466;2024-03-02T08:34:16;2.03;;;1.92;;
20375;SDS011;10347;51.828;6.466;2024-03-02T08:36:42;2.00;;;1.77;;
20375;SDS011;10347;51.828;6.466;2024-03-02T08:39:08;3.22;;;1.88;;
20375;SDS011;10347;51.828;6.466;2024-03-02T08:41:40;3.35;;;2.00;;
20375;SDS011;10347;51.828;6.466;2024-03-02T08:44:09;3.20;;;2.40;;
20375;SDS011;10347;51.828;6.466;2024-03-02T08:46:35;1.90;;;1.80;;
20375;SDS011;10347;51.828;6.466;2024-03-02T08:49:01;2.80;;;2.20;;
20375;SDS011;10347;51.828;6.466;2024-03-02T08:51:27;5.13;;;2.33;;
20375;SDS011;10347;51.828;6.466;2024-03-02T08:53:52;1.90;;;1.70;;
20375;SDS011;10347;51.828;6.466;2024-03-02T08:56:18;3.22;;;2.33;;
20375;SDS011;10347;51.828;6.466;2024-03-02T08:58:45;2.97;;;1.98;;
20375;SDS011;10347;51.828;6.466;2024-03-02T09:01:11;2.63;;;2.10;;
20375;SDS011;10347;51.828;6.466;2024-03-02T09:03:36;2.30;;;2.03;;
20375;SDS011;10347;51.828;6.466;2024-03-02T09:06:02;3.72;;;2.28;;
20375;SDS011;10347;51.828;6.466;2024-03-02T09:08:28;2.22;;;1.98;;
20375;SDS011;10347;51.828;6.466;2024-03-02T09:10:54;2.13;;;1.98;;
20375;SDS011;10347;51.828;6.466;2024-03-02T09:13:21;1.75;;;1.65;;
20375;SDS011;10347;51.828;6.466;2024-03-02T09:15:47;1.88;;;1.70;;
20375;SDS011;10347;51.828;6.466;2024-03-02T09:18:13;3.22;;;1.80;;
20375;SDS011;10347;51.828;6.466;2024-03-02T09:20:38;2.90;;;2.03;;
20375;SDS011;10347;51.828;6.466;2024-03-02T09:23:04;2.45;;;1.90;;
20375;SDS011;10347;51.828;6.466;2024-03-02T09:25:30;2.13;;;1.85;;
20375;SDS011;10347;51.828;6.466;2024-03-02T09:27:55;1.55;;;1.45;;
20375;SDS011;10347;51.828;6.466;2024-03-02T09:30:21;1.33;;;1.20;;
20375;SDS011;10347;51.828;6.466;2024-03-02T09:32:47;1.25;;;1.15;;
20375;SDS011;10347;51.828;6.466;2024-03-02T09:35:12;1.30;;;1.20;;
20375;SDS011;10347;51.828;6.466;2024-03-02T09:37:38;1.50;;;1.20;;
20375;SDS011;10347;51.828;6.466;2024-03-02T09:40:04;2.10;;;1.50;;
20375;SDS011;10347;51.828;6.466;2024-03-02T09:42:31;1.98;;;1.30;;
20375;SDS011;10347;51.828;6.466;2024-03-02T09:44:57;2.42;;;1.25;;
20375;SDS011;10347;51.828;6.466;2024-03-02T09:47:23;1.40;;;1.30;;
20375;SDS011;10347;51.828;6.466;2024-03-02T09:49:48;3.30;;;1.40;;
20375;SDS011;10347;51.828;6.466;2024-03-02T09:52:14;1.30;;;1.20;;
20375;SDS011;10347;51.828;6.466;2024-03-02T09:54:41;1.42;;;1.33;;
20375;SDS011;10347;51.828;6.466;2024-03-02T09:57:06;1.40;;;1.30;;
20375;SDS011;10347;51.828;6.466;2024-03-02T09:59:32;1.33;;;1.10;;
20375;SDS011;10347;51.828;6.466;2024-03-02T10:02:01;2.08;;;1.20;;
20375;SDS011;10347;51.828;6.466;2024-03-02T10:04:28;4.30;;;1.38;;
20375;SDS011;10347;51.828;6.466;2024-03-02T10:07:09;1.83;;;1.38;;
20375;SDS011;10347;51.828;6.466;2024-03-02T10:09:36;2.05;;;1.55;;
20375;SDS011;10347;51.828;6.466;2024-03-02T10:12:05;1.80;;;1.42;;
20375;SDS011;10347;51.828;6.466;2024-03-02T10:14:32;2.17;;;1.45;;
20375;SDS011;10347;51.828;6.466;2024-03-02T10:19:30;4.00;;;1.33;;
20375;SDS011;10347;51.828;6.466;2024-03-02T10:21:58;2.00;;;1.35;;
20375;SDS011;10347;51.828;6.466;2024-03-02T10:24:24;1.40;;;1.30;;
20375;SDS011;10347;51.828;6.466;2024-03-02T10:26:51;1.30;;;1.20;;
20375;SDS011;10347;51.828;6.466;2024-03-02T10:29:17;2.22;;;1.38;;
20375;SDS011;10347;51.828;6.466;2024-03-02T10:31:44;1.38;;;1.27;;
20375;SDS011;10347;51.828;6.466;2024-03-02T10:34:10;1.95;;;1.40;;
20375;SDS011;10347;51.828;6.466;2024-03-02T10:36:37;2.65;;;1.30;;
20375;SDS011;10347;51.828;6.466;2024-03-02T10:39:07;1.30;;;1.17;;
20375;SDS011;10347;51.828;6.466;2024-03-02T10:41:34;5.43;;;1.40;;
20375;SDS011;10347;51.828;6.466;2024-03-02T10:44:07;1.40;;;1.30;;
20375;SDS011;10347;51.828;6.466;2024-03-02T10:46:35;2.35;;;1.70;;
20375;SDS011;10347;51.828;6.466;2024-03-02T10:49:03;1.55;;;1.20;;
20375;SDS011;10347;51.828;6.466;2024-03-02T10:51:30;1.27;;;1.17;;
20375;SDS011;10347;51.828;6.466;2024-03-02T10:54:00;1.40;;;1.30;;
20375;SDS011;10347;51.828;6.466;2024-03-02T10:56:31;1.10;;;1.10;;
20375;SDS011;10347;51.828;6.466;2024-03-02T10:59:06;2.85;;;1.50;;
20375;SDS011;10347;51.828;6.466;2024-03-02T11:01:48;3.40;;;1.20;;
20375;SDS011;10347;51.828;6.466;2024-03-02T11:04:15;2.30;;;1.40;;
20375;SDS011;10347;51.828;6.466;2024-03-02T11:06:45;1.48;;;1.38;;
20375;SDS011;10347;51.828;6.466;2024-03-02T11:09:13;1.27;;;1.20;;
20375;SDS011;10347;51.828;6.466;2024-03-02T11:11:40;3.10;;;1.40;;
20375;SDS011;10347;51.828;6.466;2024-03-02T11:14:13;1.63;;;1.20;;
20375;SDS011;10347;51.828;6.466;2024-03-02T11:16:41;1.45;;;1.27;;
20375;SDS011;10347;51.828;6.466;2024-03-02T11:19:12;1.88;;;1.20;;
20375;SDS011;10347;51.828;6.466;2024-03-02T11:21:39;3.47;;;1.58;;
20375;SDS011;10347;51.828;6.466;2024-03-02T11:26:49;2.17;;;1.30;;
20375;SDS011;10347;51.828;6.466;2024-03-02T11:32:05;1.60;;;1.40;;
20375;SDS011;10347;51.828;6.466;2024-03-02T11:34:38;2.35;;;1.30;;
20375;SDS011;10347;51.828;6.466;2024-03-02T11:37:10;2.65;;;1.50;;
20375;SDS011;10347;51.828;6.466;2024-03-02T11:39:36;1.45;;;1.35;;
20375;SDS011;10347;51.828;6.466;2024-03-02T11:42:05;1.60;;;1.30;;
20375;SDS011;10347;51.828;6.466;2024-03-02T11:44:37;1.25;;;1.20;;
20375;SDS011;10347;51.828;6.466;2024-03-02T11:47:07;1.17;;;1.10;;
20375;SDS011;10347;51.828;6.466;2024-03-02T11:49:39;2.55;;;1.40;;
20375;SDS011;10347;51.828;6.466;2024-03-02T11:52:14;1.00;;;1.00;;
20375;SDS011;10347;51.828;6.466;2024-03-02T11:54:46;1.40;;;1.30;;
20375;SDS011;10347;51.828;6.466;2024-03-02T11:57:13;1.38;;;1.27;;
20375;SDS011;10347;51.828;6.466;2024-03-02T11:59:41;1.67;;;1.35;;
20375;SDS011;10347;51.828;6.466;2024-03-02T12:02:06;2.05;;;1.10;;
20375;SDS011;10347;51.828;6.466;2024-03-02T12:04:37;2.00;;;1.05;;
20375;SDS011;10347;51.828;6.466;2024-03-02T12:07:03;1.15;;;1.05;;
20375;SDS011;10347;51.828;6.466;2024-03-02T12:09:29;2.55;;;1.30;;
20375;SDS011;10347;51.828;6.466;2024-03-02T12:12:01;1.52;;;1.02;;
20375;SDS011;10347;51.828;6.466;2024-03-02T12:14:32;5.32;;;1.23;;
20375;SDS011;10347;51.828;6.466;2024-03-02T12:16:58;1.33;;;1.00;;
20375;SDS011;10347;51.828;6.466;2024-03-02T12:19:25;1.40;;;1.30;;
20375;SDS011;10347;51.828;6.466;2024-03-02T12:21:51;1.67;;;1.20;;
20375;SDS011;10347;51.828;6.466;2024-03-02T12:24:17;1.85;;;1.25;;
20375;SDS011;10347;51.828;6.466;2024-03-02T12:26:43;2.67;;;1.15;;
20375;SDS011;10347;51.828;6.466;2024-03-02T12:29:10;1.38;;;1.05;;
20375;SDS011;10347;51.828;6.466;2024-03-02T12:31:36;3.38;;;1.10;;
20375;SDS011;10347;51.828;6.466;2024-03-02T12:34:02;2.45;;;1.23;;
20375;SDS011;10347;51.828;6.466;2024-03-02T12:36:29;2.13;;;1.30;;
20375;SDS011;10347;51.828;6.466;2024-03-02T12:38:54;3.97;;;1.10;;
20375;SDS011;10347;51.828;6.466;2024-03-02T12:41:20;1.42;;;1.25;;
20375;SDS011;10347;51.828;6.466;2024-03-02T12:43:46;0.90;;;0.90;;
20375;SDS011;10347;51.828;6.466;2024-03-02T12:46:12;1.00;;;0.95;;
20375;SDS011;10347;51.828;6.466;2024-03-02T12:48:39;3.45;;;1.15;;
20375;SDS011;10347;51.828;6.466;2024-03-02T12:51:06;1.98;;;1.30;;
20375;SDS011;10347;51.828;6.466;2024-03-02T12:53:31;1.60;;;1.13;;
20375;SDS011;10347;51.828;6.466;2024-03-02T12:55:57;2.05;;;1.13;;
20375;SDS011;10347;51.828;6.466;2024-03-02T12:58:23;3.60;;;1.30;;
20375;SDS011;10347;51.828;6.466;2024-03-02T13:00:49;1.77;;;1.40;;
20375;SDS011;10347;51.828;6.466;2024-03-02T13:03:17;1.13;;;1.10;;
20375;SDS011;10347;51.828;6.466;2024-03-02T13:05:48;2.67;;;1.20;;
20375;SDS011;10347;51.828;6.466;2024-03-02T13:08:14;3.28;;;1.20;;
20375;SDS011;10347;51.828;6.466;2024-03-02T13:10:41;1.30;;;1.20;;
20375;SDS011;10347;51.828;6.466;2024-03-02T13:13:06;3.95;;;1.20;;
20375;SDS011;10347;51.828;6.466;2024-03-02T13:15:33;3.55;;;1.20;;
20375;SDS011;10347;51.828;6.466;2024-03-02T13:17:59;2.50;;;1.25;;
20375;SDS011;10347;51.828;6.466;2024-03-02T13:20:32;2.33;;;1.10;;
20375;SDS011;10347;51.828;6.466;2024-03-02T13:22:57;1.52;;;1.13;;
20375;SDS011;10347;51.828;6.466;2024-03-02T13:25:23;2.22;;;1.58;;
20375;SDS011;10347;51.828;6.466;2024-03-02T13:27:49;1.77;;;1.33;;
20375;SDS011;10347;51.828;6.466;2024-03-02T13:30:14;2.08;;;1.00;;
20375;SDS011;10347;51.828;6.466;2024-03-02T13:32:40;1.40;;;1.30;;
20375;SDS011;10347;51.828;6.466;2024-03-02T13:35:05;1.20;;;1.10;;
20375;SDS011;10347;51.828;6.466;2024-03-02T13:37:31;1.90;;;1.38;;
20375;SDS011;10347;51.828;6.466;2024-03-02T13:39:57;1.20;;;0.98;;
20375;SDS011;10347;51.828;6.466;2024-03-02T13:42:23;2.00;;;1.00;;
20375;SDS011;10347;51.828;6.466;2024-03-02T13:44:48;2.35;;;1.40;;
20375;SDS011;10347;51.828;6.466;2024-03-02T13:47:16;2.40;;;1.52;;
20375;SDS011;10347;51.828;6.466;2024-03-02T13:49:41;4.05;;;1.42;;
20375;SDS011;10347;51.828;6.466;2024-03-02T13:52:11;2.15;;;1.50;;
20375;SDS011;10347;51.828;6.466;2024-03-02T13:54:40;1.25;;;1.10;;
20375;SDS011;10347;51.828;6.466;2024-03-02T13:57:07;2.17;;;1.33;;
20375;SDS011;10347;51.828;6.466;2024-03-02T13:59:34;3.33;;;1.50;;
20375;SDS011;10347;51.828;6.466;2024-03-02T14:02:07;2.35;;;1.85;;
20375;SDS011;10347;51.828;6.466;2024-03-02T14:04:33;1.58;;;1.48;;
20375;SDS011;10347;51.828;6.466;2024-03-02T14:07:00;2.13;;;1.45;;
20375;SDS011;10347;51.828;6.466;2024-03-02T14:09:26;2.40;;;1.50;;
20375;SDS011;10347;51.828;6.466;2024-03-02T14:11:52;2.78;;;1.70;;
20375;SDS011;10347;51.828;6.466;2024-03-02T14:14:18;2.55;;;1.23;;
20375;SDS011;10347;51.828;6.466;2024-03-02T14:16:44;1.50;;;1.40;;
20375;SDS011;10347;51.828;6.466;2024-03-02T14:19:10;2.30;;;1.67;;
20375;SDS011;10347;51.828;6.466;2024-03-02T14:21:37;2.53;;;1.30;;
20375;SDS011;10347;51.828;6.466;2024-03-02T14:24:03;3.15;;;1.70;;
20375;SDS011;10347;51.828;6.466;2024-03-02T14:26:29;2.67;;;1.90;;
20375;SDS011;10347;51.828;6.466;2024-03-02T14:28:55;3.38;;;1.88;;
20375;SDS011;10347;51.828;6.466;2024-03-02T14:31:20;2.10;;;1.63;;
20375;SDS011;10347;51.828;6.466;2024-03-02T14:33:46;1.70;;;1.60;;
20375;SDS011;10347;51.828;6.466;2024-03-02T14:36:12;2.40;;;1.60;;
20375;SDS011;10347;51.828;6.466;2024-03-02T14:38:38;1.60;;;1.50;;
20375;SDS011;10347;51.828;6.466;2024-03-02T14:41:04;1.60;;;1.50;;
20375;SDS011;10347;51.828;6.466;2024-03-02T14:43:30;1.60;;;1.50;;
20375;SDS011;10347;51.828;6.466;2024-03-02T14:45:55;1.70;;;1.48;;
20375;SDS011;10347;51.828;6.466;2024-03-02T14:48:21;2.00;;;1.60;;
20375;SDS011;10347;51.828;6.466;2024-03-02T14:50:47;1.80;;;1.70;;
20375;SDS011;10347;51.828;6.466;2024-03-02T14:53:13;1.70;;;1.60;;
20375;SDS011;10347;51.828;6.466;2024-03-02T14:55:39;1.92;;;1.50;;
20375;SDS011;10347;51.828;6.466;2024-03-02T14:58:04;1.90;;;1.50;;
20375;SDS011;10347;51.828;6.466;2024-03-02T15:00:30;1.73;;;1.50;;